createdAt,value
2019-03-10T00:01:40.848Z,28.33
2019-03-10T00:04:26.239Z,25.60
2019-03-10T00:10:28.555Z,32.13
2019-03-10T00:13:35.786Z,26.10
2019-03-10T00:16:11.478Z,29.07
2019-03-10T00:18:55.969Z,26.40
2019-03-10T00:21:40.261Z,34.80
2019-03-10T00:24:27.059Z,30.57
2019-03-10T00:27:13.817Z,31.57
2019-03-10T00:29:58.527Z,27.20
2019-03-10T00:32:59.927Z,27.13
2019-03-10T00:38:50.792Z,33.83
2019-03-10T00:41:39.065Z,34.17
2019-03-10T00:44:22.971Z,30.93
2019-03-10T00:47:07.953Z,32.77
2019-03-10T00:49:52.583Z,35.03
2019-03-10T00:52:53.047Z,30.47
2019-03-10T00:55:37.596Z,33.03
2019-03-10T01:01:30.973Z,28.67
2019-03-10T01:04:20.607Z,26.47
2019-03-10T01:07:10.278Z,33.43
2019-03-10T01:09:54.806Z,37.67
2019-03-10T01:12:38.696Z,31.40
2019-03-10T01:18:15.729Z,33.43
2019-03-10T01:21:00.080Z,31.73
2019-03-10T01:23:43.182Z,32.80
2019-03-10T01:26:32.296Z,40.33
2019-03-10T01:29:17.978Z,37.90
2019-03-10T01:32:02.733Z,36.40
2019-03-10T01:34:47.371Z,37.53
2019-03-10T01:40:18.527Z,34.60
2019-03-10T01:45:56.728Z,37.57
2019-03-10T01:48:41.957Z,34.80
2019-03-10T01:51:26.203Z,33.23
2019-03-10T01:54:10.514Z,35.07
2019-03-10T01:56:57.080Z,33.90
2019-03-10T01:59:41.105Z,35.47
2019-03-10T02:02:26.102Z,38.33
2019-03-10T02:05:09.216Z,24.90
2019-03-10T02:07:52.934Z,36.30
2019-03-10T02:10:37.064Z,31.00
2019-03-10T02:13:20.146Z,24.60
2019-03-10T02:16:05.388Z,33.53
2019-03-10T02:18:49.388Z,34.13
2019-03-10T02:21:33.685Z,44.50
2019-03-10T02:24:23.750Z,31.33
2019-03-10T02:27:01.978Z,38.83
2019-03-10T02:29:45.479Z,31.63
2019-03-10T02:32:30.716Z,35.80
2019-03-10T02:35:15.155Z,35.47
2019-03-10T02:37:58.581Z,33.33
2019-03-10T02:40:31.407Z,36.40
2019-03-10T02:43:22.196Z,31.03
2019-03-10T02:46:05.921Z,37.50
2019-03-10T02:48:55.511Z,34.03
2019-03-10T02:51:41.386Z,36.13
2019-03-10T02:54:33.104Z,37.47
2019-03-10T02:57:16.641Z,34.03
2019-03-10T03:00:03.429Z,42.17
2019-03-10T03:02:50.838Z,40.50
2019-03-10T03:05:36.153Z,42.67
2019-03-10T03:08:23.822Z,37.10
2019-03-10T03:11:09.175Z,44.67
2019-03-10T03:13:52.495Z,41.40
2019-03-10T03:16:35.442Z,31.90
2019-03-10T03:22:03.606Z,34.47
2019-03-10T03:24:47.754Z,40.27
2019-03-10T03:27:36.628Z,45.77
2019-03-10T03:30:23.033Z,37.23
2019-03-10T03:33:06.707Z,35.27
2019-03-10T03:36:16.746Z,40.77
2019-03-10T03:41:37.919Z,35.13
2019-03-10T03:47:52.984Z,31.87
2019-03-10T03:50:42.058Z,23.10
2019-03-10T03:56:28.107Z,31.63
2019-03-10T03:59:13.158Z,31.60
2019-03-10T04:05:08.225Z,31.13
2019-03-10T04:07:55.905Z,28.80
2019-03-10T04:16:22.830Z,40.13
2019-03-10T04:19:09.273Z,26.60
2019-03-10T04:21:57.618Z,30.73
2019-03-10T04:24:41.313Z,44.57
2019-03-10T04:27:29.613Z,32.67
2019-03-10T04:30:13.858Z,33.23
2019-03-10T04:32:57.479Z,36.77
2019-03-10T04:35:46.464Z,35.47
2019-03-10T04:38:30.476Z,37.53
2019-03-10T04:41:14.882Z,44.80
2019-03-10T04:49:45.437Z,42.67
2019-03-10T04:52:29.302Z,52.27
2019-03-10T04:55:30.822Z,36.57
2019-03-10T04:58:19.283Z,49.50
2019-03-10T05:01:02.123Z,42.63
2019-03-10T05:03:47.632Z,46.07
2019-03-10T05:06:31.683Z,40.73
2019-03-10T05:09:15.374Z,44.10
2019-03-10T05:11:58.947Z,50.30
2019-03-10T05:14:44.477Z,45.27
2019-03-10T05:20:07.889Z,47.83
2019-03-10T05:22:56.936Z,45.77
2019-03-10T05:25:45.917Z,37.40
2019-03-10T05:28:31.734Z,37.00
2019-03-10T05:31:15.552Z,37.07
2019-03-10T05:34:05.020Z,27.93
2019-03-10T05:36:48.423Z,29.33
2019-03-10T05:39:32.965Z,24.40
2019-03-10T05:42:22.099Z,25.83
2019-03-10T05:45:06.093Z,33.63
2019-03-10T05:50:37.124Z,25.07
2019-03-10T05:53:22.803Z,35.67
2019-03-10T05:56:07.793Z,26.33
2019-03-10T05:58:51.818Z,24.30
2019-03-10T06:01:35.592Z,34.23
2019-03-10T06:04:22.493Z,36.37
2019-03-10T06:07:05.885Z,23.63
2019-03-10T06:09:49.714Z,28.67
2019-03-10T06:12:33.988Z,29.30
2019-03-10T06:15:18.103Z,25.23
2019-03-10T06:18:13.622Z,27.17
2019-03-10T06:21:14.507Z,30.57
2019-03-10T06:24:03.828Z,23.80
2019-03-10T06:26:50.896Z,36.60
2019-03-10T06:29:35.463Z,26.37
2019-03-10T06:32:18.980Z,29.53
2019-03-10T06:35:02.125Z,29.43
2019-03-10T06:37:48.272Z,31.53
2019-03-10T06:40:33.819Z,21.60
2019-03-10T06:43:17.806Z,24.30
2019-03-10T06:46:03.734Z,31.73
2019-03-10T06:48:52.660Z,25.70
2019-03-10T06:51:39.387Z,28.13
2019-03-10T06:54:27.215Z,27.53
2019-03-10T06:57:16.274Z,25.57
2019-03-10T07:00:09.753Z,23.80
2019-03-10T07:02:58.163Z,21.57
2019-03-10T07:05:43.294Z,12.20
2019-03-10T07:08:28.502Z,18.30
2019-03-10T07:11:12.792Z,17.37
2019-03-10T07:13:56.960Z,18.30
2019-03-10T07:16:41.363Z,14.07
2019-03-10T07:19:29.423Z,13.43
2019-03-10T07:22:17.518Z,16.33
2019-03-10T07:25:01.694Z,15.07
2019-03-10T07:31:02.591Z,12.17
2019-03-10T07:36:43.921Z,8.03
2019-03-10T07:42:52.688Z,15.73
2019-03-10T07:45:41.952Z,11.37
2019-03-10T07:48:37.948Z,12.40
2019-03-10T07:51:29.063Z,13.03
2019-03-10T07:54:40.769Z,6.40
2019-03-10T08:03:51.649Z,9.60
2019-03-10T08:06:43.497Z,17.03
2019-03-10T08:09:37.736Z,12.33
2019-03-10T08:12:30.001Z,19.93
2019-03-10T08:18:45.035Z,9.60
2019-03-10T08:21:56.673Z,11.27
2019-03-10T08:24:41.410Z,12.83
2019-03-10T08:27:37.687Z,9.00
2019-03-10T08:49:09.708Z,13.00
2019-03-10T08:52:18.359Z,15.13
2019-03-10T08:55:28.336Z,10.33
2019-03-10T08:58:27.404Z,8.77
2019-03-10T09:09:52.740Z,11.67
2019-03-10T09:12:53.133Z,9.80
2019-03-10T09:15:52.149Z,12.90
2019-03-10T09:19:02.735Z,8.90
2019-03-10T09:25:12.075Z,17.60
2019-03-10T09:28:08.323Z,13.37
2019-03-10T09:34:21.718Z,16.97
2019-03-10T09:37:32.531Z,10.57
2019-03-10T09:40:15.603Z,10.87
2019-03-10T09:43:13.206Z,9.37
2019-03-10T09:45:56.633Z,8.33
2019-03-10T09:49:02.504Z,7.53
2019-03-10T09:51:51.355Z,9.23
2019-03-10T09:57:47.178Z,11.60
2019-03-10T10:06:35.300Z,8.60
2019-03-10T10:09:23.808Z,6.20
2019-03-10T10:15:40.419Z,5.97
2019-03-10T10:21:36.557Z,10.10
2019-03-10T10:27:29.490Z,5.90
2019-03-10T10:36:42.774Z,10.23
2019-03-10T10:43:13.736Z,9.23
2019-03-10T10:46:15.817Z,9.50
2019-03-10T10:49:02.162Z,9.87
2019-03-10T10:54:59.732Z,12.20
2019-03-10T11:07:46.879Z,8.70
2019-03-10T11:10:33.217Z,14.07
2019-03-10T11:13:21.999Z,12.23
2019-03-10T11:19:16.943Z,17.23
2019-03-10T11:22:08.604Z,15.87
2019-03-10T11:25:10.220Z,17.83
2019-03-10T11:28:00.290Z,18.20
2019-03-10T11:33:49.392Z,11.10
2019-03-10T11:36:38.211Z,11.07
2019-03-10T11:39:43.263Z,11.63
2019-03-10T11:42:31.840Z,11.00
2019-03-10T11:52:16.650Z,11.73
2019-03-10T11:55:06.760Z,11.27
2019-03-10T11:58:12.598Z,15.70
2019-03-10T12:06:35.169Z,19.77
2019-03-10T12:09:25.759Z,17.57
2019-03-10T12:12:38.202Z,14.53
2019-03-10T12:15:31.223Z,15.17
2019-03-10T12:18:15.168Z,12.73
2019-03-10T12:24:10.446Z,10.90
2019-03-10T12:26:42.954Z,15.67
2019-03-10T12:35:34.702Z,12.80
2019-03-10T12:41:14.041Z,12.13
2019-03-10T12:53:14.303Z,11.03
2019-03-10T12:55:59.387Z,10.50
2019-03-10T12:58:43.957Z,10.93
2019-03-10T13:04:32.676Z,14.30
2019-03-10T13:07:22.714Z,14.00
2019-03-10T13:16:43.333Z,15.73
2019-03-10T13:22:30.143Z,18.43
2019-03-10T13:25:15.795Z,19.23
2019-03-10T13:30:58.351Z,18.07
2019-03-10T13:33:44.225Z,15.00
2019-03-10T13:45:45.584Z,21.80
2019-03-10T13:48:29.860Z,11.80
2019-03-10T13:54:22.383Z,5.93
2019-03-10T13:57:06.783Z,8.90
2019-03-10T14:02:51.229Z,6.60
2019-03-10T14:11:36.832Z,4.07
2019-03-10T14:17:19.325Z,7.23
2019-03-10T14:25:56.108Z,4.87
2019-03-10T14:28:42.267Z,7.83
2019-03-10T14:34:15.281Z,10.00
2019-03-10T14:36:59.409Z,14.27
2019-03-10T14:39:42.774Z,6.03
2019-03-10T14:42:29.014Z,7.27
2019-03-10T14:45:13.073Z,6.97
2019-03-10T14:48:00.754Z,2.93
2019-03-10T14:50:46.138Z,4.10
2019-03-10T14:53:32.177Z,3.07
2019-03-10T14:56:21.753Z,3.47
2019-03-10T15:02:07.818Z,2.60
2019-03-10T15:04:55.902Z,3.50
2019-03-10T15:07:40.485Z,10.60
2019-03-10T15:10:25.209Z,5.03
2019-03-10T15:13:11.264Z,8.13
2019-03-10T15:16:02.416Z,4.70
2019-03-10T15:18:48.904Z,8.20
2019-03-10T15:24:17.877Z,4.97
2019-03-10T15:27:04.447Z,8.10
2019-03-10T15:29:51.279Z,5.40
2019-03-10T15:35:25.939Z,9.70
2019-03-10T15:38:14.535Z,4.90
2019-03-10T15:44:05.392Z,7.23
2019-03-10T15:46:49.191Z,5.90
2019-03-10T15:49:23.804Z,6.33
2019-03-10T15:52:16.367Z,4.07
2019-03-10T15:57:51.078Z,6.43
2019-03-10T16:00:34.855Z,6.20
2019-03-10T16:03:18.219Z,3.87
2019-03-10T16:06:02.966Z,7.17
2019-03-10T16:08:47.349Z,10.87
2019-03-10T16:11:31.686Z,8.13
2019-03-10T16:14:16.748Z,8.17
2019-03-10T16:17:03.267Z,8.10
2019-03-10T16:19:46.661Z,4.67
2019-03-10T16:22:31.288Z,6.73
2019-03-10T16:25:16.749Z,0.77
2019-03-10T16:28:03.418Z,1.10
2019-03-10T16:36:30.567Z,0.50
2019-03-10T16:39:16.766Z,0.60
2019-03-10T16:42:08.448Z,0.73
2019-03-10T16:47:45.395Z,0.40
2019-03-10T16:50:30.214Z,0.60
2019-03-10T16:53:13.742Z,1.20
2019-03-10T16:56:02.659Z,0.50
2019-03-10T16:58:43.791Z,0.43
2019-03-10T17:01:32.467Z,0.77
2019-03-10T17:04:16.904Z,0.80
2019-03-10T17:06:58.609Z,1.33
2019-03-10T17:09:48.037Z,1.53
2019-03-10T17:12:36.301Z,0.67
2019-03-10T17:18:04.980Z,0.73
2019-03-10T17:20:49.886Z,1.00
2019-03-10T17:29:23.191Z,2.20
2019-03-10T17:32:16.347Z,1.80
2019-03-10T17:35:02.678Z,2.30
2019-03-10T17:37:48.607Z,2.97
2019-03-10T17:52:14.339Z,6.27
2019-03-10T17:55:11.647Z,4.50
2019-03-10T17:57:57.009Z,10.80
2019-03-10T18:07:02.469Z,13.83
2019-03-10T18:16:15.348Z,14.50
2019-03-10T18:19:01.815Z,7.70
2019-03-10T18:21:48.799Z,5.00
2019-03-10T18:27:44.336Z,7.20
2019-03-10T18:31:00.754Z,10.77
2019-03-10T18:33:49.954Z,5.40
2019-03-10T18:39:43.019Z,9.83
2019-03-10T18:46:02.604Z,7.37
2019-03-10T18:48:48.798Z,4.97
2019-03-10T18:51:42.571Z,1.67
2019-03-10T18:54:27.485Z,2.90
2019-03-10T18:57:15.614Z,6.00
2019-03-10T19:02:52.523Z,2.70
2019-03-10T19:05:42.314Z,2.80
2019-03-10T19:08:31.603Z,3.60
2019-03-10T19:11:18.222Z,2.13
2019-03-10T19:13:52.806Z,2.70
2019-03-10T19:16:38.041Z,1.27
2019-03-10T19:22:05.352Z,5.00
2019-03-10T19:24:40.685Z,3.63
2019-03-10T19:27:30.513Z,2.60
2019-03-10T19:30:18.341Z,2.57
2019-03-10T19:32:54.076Z,2.23
2019-03-10T19:35:41.103Z,3.40
2019-03-10T19:47:51.346Z,9.87
2019-03-10T19:50:40.645Z,11.87
2019-03-10T19:53:30.729Z,12.17
2019-03-10T19:56:19.503Z,6.53
2019-03-10T19:59:10.793Z,6.43
2019-03-10T20:01:44.181Z,6.97
2019-03-10T20:04:27.768Z,13.10
2019-03-10T20:07:13.799Z,6.17
2019-03-10T20:09:47.149Z,5.63
2019-03-10T20:15:31.041Z,1.83
2019-03-10T20:27:23.839Z,3.83
2019-03-10T20:42:11.990Z,11.03
2019-03-10T20:54:43.458Z,3.77
2019-03-10T20:57:45.354Z,4.90
2019-03-10T21:03:20.814Z,7.33
2019-03-10T21:09:06.822Z,4.70
2019-03-10T21:18:20.189Z,5.53
2019-03-10T21:24:39.169Z,7.03
2019-03-10T21:27:26.363Z,8.07
2019-03-10T21:30:12.614Z,5.57
2019-03-10T21:32:46.416Z,6.63
2019-03-10T21:41:32.964Z,5.10
2019-03-10T21:48:04.014Z,9.10
2019-03-10T21:59:50.141Z,10.30
2019-03-10T22:02:44.017Z,9.57
2019-03-10T22:05:30.214Z,8.73
2019-03-10T22:08:16.956Z,6.77
2019-03-10T22:11:02.438Z,9.27
2019-03-10T22:13:49.899Z,6.73
2019-03-10T22:16:36.165Z,4.40
2019-03-10T22:19:23.227Z,9.43
2019-03-10T22:22:08.778Z,9.83
2019-03-10T22:24:54.089Z,9.43
2019-03-10T22:27:45.920Z,7.50
2019-03-10T22:30:52.591Z,9.20
2019-03-10T22:36:48.271Z,8.77
2019-03-10T22:39:33.555Z,12.30
2019-03-10T22:45:14.063Z,9.93
2019-03-10T22:47:58.313Z,6.57
2019-03-10T22:50:47.743Z,9.97
2019-03-10T22:53:33.827Z,9.13
2019-03-10T22:59:02.346Z,4.23
2019-03-10T23:01:48.380Z,9.97
2019-03-10T23:04:34.679Z,9.97
2019-03-10T23:07:20.907Z,11.23
2019-03-10T23:10:07.245Z,10.70
2019-03-10T23:13:09.445Z,12.07
2019-03-10T23:18:49.780Z,11.67
2019-03-10T23:21:37.998Z,11.30
2019-03-10T23:27:07.703Z,10.20
2019-03-10T23:29:56.771Z,7.30
2019-03-10T23:35:44.736Z,9.77
2019-03-10T23:38:28.864Z,11.90
2019-03-10T23:41:13.273Z,10.17
2019-03-10T23:46:47.264Z,12.90
2019-03-10T23:49:36.157Z,14.27
2019-03-10T23:52:23.531Z,12.93
2019-03-10T23:58:03.708Z,10.37
